sensor_id;sensor_type;location;lat;lon;timestamp;P1;durP1;ratioP1;P2;durP2;ratioP2
16892;SDS011;8563;52.242;9.098;2024-03-23T00:54:11;19.07;;;11.83;;
16892;SDS011;8563;52.242;9.098;2024-03-23T00:56:42;15.10;;;9.73;;
16892;SDS011;8563;52.242;9.098;2024-03-23T00:59:14;16.07;;;8.87;;
16892;SDS011;8563;52.242;9.098;2024-03-23T01:01:46;14.93;;;8.47;;
16892;SDS011;8563;52.242;9.098;2024-03-23T01:04:18;12.43;;;7.77;;
16892;SDS011;8563;52.242;9.098;2024-03-23T01:06:49;14.17;;;8.03;;
16892;SDS011;8563;52.242;9.098;2024-03-23T01:09:23;16.17;;;8.00;;
16892;SDS011;8563;52.242;9.098;2024-03-23T01:11:54;19.07;;;8.43;;
16892;SDS011;8563;52.242;9.098;2024-03-23T01:14:26;15.83;;;7.37;;
16892;SDS011;8563;52.242;9.098;2024-03-23T01:16:57;13.10;;;6.87;;
16892;SDS011;8563;52.242;9.098;2024-03-23T01:19:30;15.87;;;6.90;;
16892;SDS011;8563;52.242;9.098;2024-03-23T01:22:01;15.87;;;7.67;;
16892;SDS011;8563;52.242;9.098;2024-03-23T01:24:35;16.87;;;6.90;;
16892;SDS011;8563;52.242;9.098;2024-03-23T01:27:06;14.40;;;7.00;;
16892;SDS011;8563;52.242;9.098;2024-03-23T01:29:40;13.60;;;6.27;;
16892;SDS011;8563;52.242;9.098;2024-03-23T01:32:11;10.10;;;6.33;;
16892;SDS011;8563;52.242;9.098;2024-03-23T01:34:43;19.53;;;7.70;;
16892;SDS011;8563;52.242;9.098;2024-03-23T01:37:15;14.70;;;5.97;;
16892;SDS011;8563;52.242;9.098;2024-03-23T01:39:48;10.27;;;5.87;;
16892;SDS011;8563;52.242;9.098;2024-03-23T01:42:19;12.93;;;5.67;;
16892;SDS011;8563;52.242;9.098;2024-03-23T01:44:52;14.20;;;5.50;;
16892;SDS011;8563;52.242;9.098;2024-03-23T01:47:23;11.90;;;6.17;;
16892;SDS011;8563;52.242;9.098;2024-03-23T01:49:56;11.97;;;5.43;;
16892;SDS011;8563;52.242;9.098;2024-03-23T01:52:27;12.60;;;5.60;;
16892;SDS011;8563;52.242;9.098;2024-03-23T01:55:02;17.37;;;4.67;;
16892;SDS011;8563;52.242;9.098;2024-03-23T01:57:33;10.80;;;4.77;;
16892;SDS011;8563;52.242;9.098;2024-03-23T02:00:06;9.30;;;4.30;;
16892;SDS011;8563;52.242;9.098;2024-03-23T02:02:45;15.87;;;5.03;;
16892;SDS011;8563;52.242;9.098;2024-03-23T02:05:17;13.47;;;4.83;;
16892;SDS011;8563;52.242;9.098;2024-03-23T02:07:49;9.33;;;4.00;;
16892;SDS011;8563;52.242;9.098;2024-03-23T02:10:24;11.80;;;4.57;;
16892;SDS011;8563;52.242;9.098;2024-03-23T02:12:55;12.13;;;4.90;;
16892;SDS011;8563;52.242;9.098;2024-03-23T02:15:27;13.17;;;4.30;;
16892;SDS011;8563;52.242;9.098;2024-03-23T02:17:58;12.07;;;4.23;;
16892;SDS011;8563;52.242;9.098;2024-03-23T02:20:30;9.97;;;4.30;;
16892;SDS011;8563;52.242;9.098;2024-03-23T02:23:03;11.07;;;4.13;;
16892;SDS011;8563;52.242;9.098;2024-03-23T02:25:36;9.90;;;4.40;;
16892;SDS011;8563;52.242;9.098;2024-03-23T02:28:08;11.93;;;4.60;;
16892;SDS011;8563;52.242;9.098;2024-03-23T02:30:40;10.70;;;4.37;;
16892;SDS011;8563;52.242;9.098;2024-03-23T02:33:11;9.10;;;4.00;;
16892;SDS011;8563;52.242;9.098;2024-03-23T02:35:44;11.97;;;4.50;;
16892;SDS011;8563;52.242;9.098;2024-03-23T02:38:18;10.67;;;3.93;;
16892;SDS011;8563;52.242;9.098;2024-03-23T02:40:50;9.87;;;4.20;;
16892;SDS011;8563;52.242;9.098;2024-03-23T02:43:21;8.87;;;3.93;;
16892;SDS011;8563;52.242;9.098;2024-03-23T02:45:53;9.00;;;4.07;;
16892;SDS011;8563;52.242;9.098;2024-03-23T02:48:25;8.83;;;3.73;;
16892;SDS011;8563;52.242;9.098;2024-03-23T02:50:57;10.40;;;4.57;;
16892;SDS011;8563;52.242;9.098;2024-03-23T02:53:29;9.17;;;4.07;;
16892;SDS011;8563;52.242;9.098;2024-03-23T02:56:02;9.83;;;4.40;;
16892;SDS011;8563;52.242;9.098;2024-03-23T02:58:34;8.47;;;3.83;;
16892;SDS011;8563;52.242;9.098;2024-03-23T03:01:06;8.83;;;3.90;;
16892;SDS011;8563;52.242;9.098;2024-03-23T03:03:37;7.17;;;3.80;;
16892;SDS011;8563;52.242;9.098;2024-03-23T03:06:09;10.07;;;4.30;;
16892;SDS011;8563;52.242;9.098;2024-03-23T03:08:42;8.53;;;4.10;;
16892;SDS011;8563;52.242;9.098;2024-03-23T03:11:14;7.27;;;4.53;;
16892;SDS011;8563;52.242;9.098;2024-03-23T03:13:45;9.73;;;4.00;;
16892;SDS011;8563;52.242;9.098;2024-03-23T03:16:18;11.97;;;3.97;;
16892;SDS011;8563;52.242;9.098;2024-03-23T03:18:49;9.87;;;4.70;;
16892;SDS011;8563;52.242;9.098;2024-03-23T03:21:23;9.63;;;4.33;;
16892;SDS011;8563;52.242;9.098;2024-03-23T03:23:55;10.47;;;4.07;;
16892;SDS011;8563;52.242;9.098;2024-03-23T03:26:27;11.97;;;4.70;;
16892;SDS011;8563;52.242;9.098;2024-03-23T03:28:59;10.13;;;4.60;;
16892;SDS011;8563;52.242;9.098;2024-03-23T03:31:31;8.43;;;4.10;;
16892;SDS011;8563;52.242;9.098;2024-03-23T03:34:02;11.67;;;5.03;;
16892;SDS011;8563;52.242;9.098;2024-03-23T03:36:35;7.83;;;4.37;;
16892;SDS011;8563;52.242;9.098;2024-03-23T03:39:07;6.03;;;4.27;;
16892;SDS011;8563;52.242;9.098;2024-03-23T03:41:40;12.27;;;5.30;;
16892;SDS011;8563;52.242;9.098;2024-03-23T03:44:11;8.80;;;4.57;;
16892;SDS011;8563;52.242;9.098;2024-03-23T03:46:43;10.70;;;5.03;;
16892;SDS011;8563;52.242;9.098;2024-03-23T03:49:15;11.03;;;5.03;;
16892;SDS011;8563;52.242;9.098;2024-03-23T03:51:47;11.83;;;5.70;;
16892;SDS011;8563;52.242;9.098;2024-03-23T03:54:20;8.93;;;4.50;;
16892;SDS011;8563;52.242;9.098;2024-03-23T03:56:52;10.40;;;4.43;;
16892;SDS011;8563;52.242;9.098;2024-03-23T03:59:23;11.40;;;4.00;;
16892;SDS011;8563;52.242;9.098;2024-03-23T04:01:56;7.83;;;3.23;;
16892;SDS011;8563;52.242;9.098;2024-03-23T04:04:27;9.00;;;3.63;;
16892;SDS011;8563;52.242;9.098;2024-03-23T04:07:01;8.17;;;3.17;;
16892;SDS011;8563;52.242;9.098;2024-03-23T04:09:34;8.43;;;2.93;;
16892;SDS011;8563;52.242;9.098;2024-03-23T04:12:07;11.37;;;3.70;;
16892;SDS011;8563;52.242;9.098;2024-03-23T04:14:38;8.47;;;3.03;;
16892;SDS011;8563;52.242;9.098;2024-03-23T04:17:10;10.23;;;3.80;;
16892;SDS011;8563;52.242;9.098;2024-03-23T04:19:42;8.80;;;3.13;;
16892;SDS011;8563;52.242;9.098;2024-03-23T04:22:15;7.17;;;2.63;;
16892;SDS011;8563;52.242;9.098;2024-03-23T04:24:49;7.90;;;2.93;;
16892;SDS011;8563;52.242;9.098;2024-03-23T04:27:21;10.00;;;3.33;;
16892;SDS011;8563;52.242;9.098;2024-03-23T04:29:53;7.20;;;2.80;;
16892;SDS011;8563;52.242;9.098;2024-03-23T04:32:25;11.27;;;4.13;;
16892;SDS011;8563;52.242;9.098;2024-03-23T04:34:56;10.77;;;3.60;;
16892;SDS011;8563;52.242;9.098;2024-03-23T04:37:29;10.97;;;3.57;;
16892;SDS011;8563;52.242;9.098;2024-03-23T04:40:03;10.03;;;3.77;;
16892;SDS011;8563;52.242;9.098;2024-03-23T04:42:37;6.47;;;2.60;;
16892;SDS011;8563;52.242;9.098;2024-03-23T04:45:09;6.77;;;3.33;;
16892;SDS011;8563;52.242;9.098;2024-03-23T04:47:42;7.87;;;3.13;;
16892;SDS011;8563;52.242;9.098;2024-03-23T04:50:14;7.53;;;3.40;;
16892;SDS011;8563;52.242;9.098;2024-03-23T04:52:47;6.60;;;2.90;;
16892;SDS011;8563;52.242;9.098;2024-03-23T04:55:20;6.70;;;2.80;;
16892;SDS011;8563;52.242;9.098;2024-03-23T04:57:53;9.27;;;3.30;;
16892;SDS011;8563;52.242;9.098;2024-03-23T05:00:25;9.93;;;3.20;;
16892;SDS011;8563;52.242;9.098;2024-03-23T05:02:57;9.33;;;3.10;;
16892;SDS011;8563;52.242;9.098;2024-03-23T05:05:28;9.40;;;3.30;;
16892;SDS011;8563;52.242;9.098;2024-03-23T05:08:00;7.47;;;3.10;;
16892;SDS011;8563;52.242;9.098;2024-03-23T05:10:33;10.30;;;3.80;;
16892;SDS011;8563;52.242;9.098;2024-03-23T05:13:06;8.90;;;3.87;;
16892;SDS011;8563;52.242;9.098;2024-03-23T05:15:37;8.90;;;4.00;;
16892;SDS011;8563;52.242;9.098;2024-03-23T05:18:10;9.57;;;3.80;;
16892;SDS011;8563;52.242;9.098;2024-03-23T05:20:41;10.73;;;4.40;;
16892;SDS011;8563;52.242;9.098;2024-03-23T05:23:14;10.57;;;4.23;;
16892;SDS011;8563;52.242;9.098;2024-03-23T05:25:47;15.07;;;4.97;;
16892;SDS011;8563;52.242;9.098;2024-03-23T05:28:19;12.57;;;4.40;;
16892;SDS011;8563;52.242;9.098;2024-03-23T05:30:52;11.23;;;4.80;;
16892;SDS011;8563;52.242;9.098;2024-03-23T05:33:24;11.53;;;4.27;;
16892;SDS011;8563;52.242;9.098;2024-03-23T05:35:56;15.80;;;6.37;;
16892;SDS011;8563;52.242;9.098;2024-03-23T05:38:28;7.73;;;4.10;;
16892;SDS011;8563;52.242;9.098;2024-03-23T05:41:02;15.63;;;5.27;;
16892;SDS011;8563;52.242;9.098;2024-03-23T05:43:33;12.43;;;4.97;;
16892;SDS011;8563;52.242;9.098;2024-03-23T05:46:06;13.93;;;5.43;;
16892;SDS011;8563;52.242;9.098;2024-03-23T05:48:38;10.10;;;4.57;;
16892;SDS011;8563;52.242;9.098;2024-03-23T05:51:10;10.97;;;4.70;;
16892;SDS011;8563;52.242;9.098;2024-03-23T05:53:43;12.77;;;5.00;;
16892;SDS011;8563;52.242;9.098;2024-03-23T05:56:19;15.00;;;5.17;;
16892;SDS011;8563;52.242;9.098;2024-03-23T05:58:50;13.33;;;5.97;;
16892;SDS011;8563;52.242;9.098;2024-03-23T06:01:22;15.33;;;6.43;;
16892;SDS011;8563;52.242;9.098;2024-03-23T06:03:54;13.30;;;5.50;;
16892;SDS011;8563;52.242;9.098;2024-03-23T06:06:26;16.63;;;5.30;;
16892;SDS011;8563;52.242;9.098;2024-03-23T06:09:00;12.87;;;6.17;;
16892;SDS011;8563;52.242;9.098;2024-03-23T06:11:35;17.07;;;6.67;;
16892;SDS011;8563;52.242;9.098;2024-03-23T06:14:06;14.70;;;6.80;;
16892;SDS011;8563;52.242;9.098;2024-03-23T06:16:38;15.93;;;6.27;;
16892;SDS011;8563;52.242;9.098;2024-03-23T06:19:09;14.93;;;7.20;;
16892;SDS011;8563;52.242;9.098;2024-03-23T06:21:43;14.43;;;6.67;;
16892;SDS011;8563;52.242;9.098;2024-03-23T06:24:14;17.17;;;6.80;;
16892;SDS011;8563;52.242;9.098;2024-03-23T06:26:48;14.40;;;7.10;;
16892;SDS011;8563;52.242;9.098;2024-03-23T06:29:20;12.77;;;6.72;;
16892;SDS011;8563;52.242;9.098;2024-03-23T06:31:53;16.93;;;6.87;;
16892;SDS011;8563;52.242;9.098;2024-03-23T06:34:25;16.40;;;6.93;;
16892;SDS011;8563;52.242;9.098;2024-03-23T06:36:57;14.17;;;6.50;;
16892;SDS011;8563;52.242;9.098;2024-03-23T06:39:28;17.73;;;6.87;;
16892;SDS011;8563;52.242;9.098;2024-03-23T06:42:02;12.17;;;5.80;;
16892;SDS011;8563;52.242;9.098;2024-03-23T06:44:34;12.57;;;5.47;;
16892;SDS011;8563;52.242;9.098;2024-03-23T06:47:06;13.70;;;5.47;;
16892;SDS011;8563;52.242;9.098;2024-03-23T06:49:37;12.83;;;5.63;;
16892;SDS011;8563;52.242;9.098;2024-03-23T06:52:10;12.60;;;5.30;;
16892;SDS011;8563;52.242;9.098;2024-03-23T06:54:41;15.17;;;5.37;;
16892;SDS011;8563;52.242;9.098;2024-03-23T06:57:16;14.63;;;5.23;;
16892;SDS011;8563;52.242;9.098;2024-03-23T06:59:47;12.57;;;4.50;;
16892;SDS011;8563;52.242;9.098;2024-03-23T07:02:20;15.20;;;4.90;;
16892;SDS011;8563;52.242;9.098;2024-03-23T07:04:51;12.17;;;5.23;;
16892;SDS011;8563;52.242;9.098;2024-03-23T07:07:23;14.47;;;5.33;;
16892;SDS011;8563;52.242;9.098;2024-03-23T07:09:55;16.33;;;6.03;;
16892;SDS011;8563;52.242;9.098;2024-03-23T07:12:28;15.00;;;5.50;;
16892;SDS011;8563;52.242;9.098;2024-03-23T07:15:00;15.40;;;6.10;;
16892;SDS011;8563;52.242;9.098;2024-03-23T07:17:32;15.53;;;5.73;;
16892;SDS011;8563;52.242;9.098;2024-03-23T07:20:05;17.63;;;5.80;;
16892;SDS011;8563;52.242;9.098;2024-03-23T07:22:40;13.23;;;4.90;;
16892;SDS011;8563;52.242;9.098;2024-03-23T07:25:12;10.70;;;4.80;;
16892;SDS011;8563;52.242;9.098;2024-03-23T07:27:46;12.07;;;5.00;;
16892;SDS011;8563;52.242;9.098;2024-03-23T07:30:17;16.23;;;5.67;;
16892;SDS011;8563;52.242;9.098;2024-03-23T07:32:49;12.20;;;5.70;;
16892;SDS011;8563;52.242;9.098;2024-03-23T07:35:21;17.33;;;6.23;;
16892;SDS011;8563;52.242;9.098;2024-03-23T07:37:53;13.97;;;6.07;;
16892;SDS011;8563;52.242;9.098;2024-03-23T07:40:24;14.57;;;5.20;;
16892;SDS011;8563;52.242;9.098;2024-03-23T07:42:58;14.03;;;6.13;;
16892;SDS011;8563;52.242;9.098;2024-03-23T07:45:29;17.10;;;6.00;;
16892;SDS011;8563;52.242;9.098;2024-03-23T07:48:02;17.03;;;6.30;;
16892;SDS011;8563;52.242;9.098;2024-03-23T07:50:33;19.00;;;6.30;;
16892;SDS011;8563;52.242;9.098;2024-03-23T07:53:05;13.03;;;5.77;;
16892;SDS011;8563;52.242;9.098;2024-03-23T07:55:37;17.03;;;5.37;;
16892;SDS011;8563;52.242;9.098;2024-03-23T07:58:10;14.67;;;6.07;;
16892;SDS011;8563;52.242;9.098;2024-03-23T08:00:42;18.13;;;6.23;;
16892;SDS011;8563;52.242;9.098;2024-03-23T08:03:14;18.53;;;6.37;;
16892;SDS011;8563;52.242;9.098;2024-03-23T08:05:45;14.43;;;5.63;;
16892;SDS011;8563;52.242;9.098;2024-03-23T08:08:18;15.03;;;5.70;;
16892;SDS011;8563;52.242;9.098;2024-03-23T08:10:49;16.63;;;5.80;;
16892;SDS011;8563;52.242;9.098;2024-03-23T08:13:23;14.63;;;5.17;;
16892;SDS011;8563;52.242;9.098;2024-03-23T08:15:56;15.63;;;5.90;;
16892;SDS011;8563;52.242;9.098;2024-03-23T08:18:29;13.70;;;5.60;;
16892;SDS011;8563;52.242;9.098;2024-03-23T08:21:01;17.00;;;6.00;;
16892;SDS011;8563;52.242;9.098;2024-03-23T08:23:34;13.40;;;6.10;;
16892;SDS011;8563;52.242;9.098;2024-03-23T08:26:09;15.53;;;5.60;;
16892;SDS011;8563;52.242;9.098;2024-03-23T08:28:45;14.90;;;5.57;;
16892;SDS011;8563;52.242;9.098;2024-03-23T08:31:16;21.47;;;5.57;;
16892;SDS011;8563;52.242;9.098;2024-03-23T08:33:48;15.30;;;5.40;;
16892;SDS011;8563;52.242;9.098;2024-03-23T08:36:20;14.87;;;5.97;;
16892;SDS011;8563;52.242;9.098;2024-03-23T08:38:52;15.23;;;5.80;;
16892;SDS011;8563;52.242;9.098;2024-03-23T08:41:25;15.70;;;6.00;;
16892;SDS011;8563;52.242;9.098;2024-03-23T08:43:58;16.97;;;5.40;;
16892;SDS011;8563;52.242;9.098;2024-03-23T08:46:30;17.63;;;5.93;;
16892;SDS011;8563;52.242;9.098;2024-03-23T08:49:03;14.40;;;5.47;;
16892;SDS011;8563;52.242;9.098;2024-03-23T08:51:34;14.17;;;5.50;;
16892;SDS011;8563;52.242;9.098;2024-03-23T08:54:06;11.73;;;5.07;;
16892;SDS011;8563;52.242;9.098;2024-03-23T08:56:38;15.70;;;4.77;;
16892;SDS011;8563;52.242;9.098;2024-03-23T08:59:11;16.53;;;5.33;;
16892;SDS011;8563;52.242;9.098;2024-03-23T09:01:43;13.83;;;4.77;;
16892;SDS011;8563;52.242;9.098;2024-03-23T09:04:15;14.93;;;4.80;;
16892;SDS011;8563;52.242;9.098;2024-03-23T09:06:46;10.13;;;4.63;;
16892;SDS011;8563;52.242;9.098;2024-03-23T09:09:18;15.80;;;5.57;;
16892;SDS011;8563;52.242;9.098;2024-03-23T09:11:50;15.17;;;5.10;;
16892;SDS011;8563;52.242;9.098;2024-03-23T09:14:24;10.73;;;4.13;;
16892;SDS011;8563;52.242;9.098;2024-03-23T09:16:55;10.83;;;3.97;;
16892;SDS011;8563;52.242;9.098;2024-03-23T09:19:28;13.00;;;4.00;;
16892;SDS011;8563;52.242;9.098;2024-03-23T09:21:59;11.07;;;4.27;;
16892;SDS011;8563;52.242;9.098;2024-03-23T09:24:31;11.37;;;4.43;;
16892;SDS011;8563;52.242;9.098;2024-03-23T09:27:02;11.70;;;4.13;;
16892;SDS011;8563;52.242;9.098;2024-03-23T09:29:36;11.83;;;4.07;;
16892;SDS011;8563;52.242;9.098;2024-03-23T09:32:08;10.30;;;3.60;;
16892;SDS011;8563;52.242;9.098;2024-03-23T09:34:40;13.80;;;4.03;;
16892;SDS011;8563;52.242;9.098;2024-03-23T09:37:11;12.13;;;4.77;;
16892;SDS011;8563;52.242;9.098;2024-03-23T09:39:43;10.50;;;4.23;;
16892;SDS011;8563;52.242;9.098;2024-03-23T09:42:14;12.23;;;3.90;;
16892;SDS011;8563;52.242;9.098;2024-03-23T09:44:49;10.67;;;4.00;;
16892;SDS011;8563;52.242;9.098;2024-03-23T09:47:22;13.00;;;3.67;;
16892;SDS011;8563;52.242;9.098;2024-03-23T09:49:56;12.87;;;3.93;;
16892;SDS011;8563;52.242;9.098;2024-03-23T09:52:27;10.47;;;4.03;;
16892;SDS011;8563;52.242;9.098;2024-03-23T09:54:59;9.97;;;3.50;;
16892;SDS011;8563;52.242;9.098;2024-03-23T09:57:31;10.53;;;4.20;;
16892;SDS011;8563;52.242;9.098;2024-03-23T10:00:05;9.47;;;3.50;;
16892;SDS011;8563;52.242;9.098;2024-03-23T10:02:38;8.23;;;3.80;;
16892;SDS011;8563;52.242;9.098;2024-03-23T10:05:19;9.43;;;3.37;;
16892;SDS011;8563;52.242;9.098;2024-03-23T10:07:52;11.77;;;4.37;;
16892;SDS011;8563;52.242;9.098;2024-03-23T10:10:25;10.70;;;4.13;;
16892;SDS011;8563;52.242;9.098;2024-03-23T10:12:56;10.17;;;3.87;;
16892;SDS011;8563;52.242;9.098;2024-03-23T10:15:30;11.60;;;4.60;;
16892;SDS011;8563;52.242;9.098;2024-03-23T10:18:12;9.53;;;3.80;;
16892;SDS011;8563;52.242;9.098;2024-03-23T10:20:50;9.07;;;4.10;;
16892;SDS011;8563;52.242;9.098;2024-03-23T10:23:24;12.20;;;3.40;;
16892;SDS011;8563;52.242;9.098;2024-03-23T10:25:55;7.17;;;2.70;;
16892;SDS011;8563;52.242;9.098;2024-03-23T10:28:50;9.90;;;2.80;;
16892;SDS011;8563;52.242;9.098;2024-03-23T10:31:28;5.53;;;2.63;;
16892;SDS011;8563;52.242;9.098;2024-03-23T10:34:02;10.33;;;3.70;;
16892;SDS011;8563;52.242;9.098;2024-03-23T10:36:34;7.50;;;2.83;;
16892;SDS011;8563;52.242;9.098;2024-03-23T10:39:11;8.97;;;2.87;;
16892;SDS011;8563;52.242;9.098;2024-03-23T10:41:43;8.80;;;3.60;;
16892;SDS011;8563;52.242;9.098;2024-03-23T10:44:17;13.70;;;3.20;;
16892;SDS011;8563;52.242;9.098;2024-03-23T10:46:55;7.43;;;2.63;;
16892;SDS011;8563;52.242;9.098;2024-03-23T10:49:30;8.47;;;2.87;;
16892;SDS011;8563;52.242;9.098;2024-03-23T10:52:03;8.70;;;3.00;;
16892;SDS011;8563;52.242;9.098;2024-03-23T10:54:36;6.47;;;3.13;;
16892;SDS011;8563;52.242;9.098;2024-03-23T10:57:10;7.63;;;2.80;;
16892;SDS011;8563;52.242;9.098;2024-03-23T10:59:46;11.80;;;3.60;;
16892;SDS011;8563;52.242;9.098;2024-03-23T11:02:19;7.73;;;2.93;;
16892;SDS011;8563;52.242;9.098;2024-03-23T11:04:52;8.60;;;3.17;;
16892;SDS011;8563;52.242;9.098;2024-03-23T11:07:28;9.30;;;2.93;;
16892;SDS011;8563;52.242;9.098;2024-03-23T11:10:01;6.30;;;3.10;;
16892;SDS011;8563;52.242;9.098;2024-03-23T11:12:53;5.60;;;2.40;;
16892;SDS011;8563;52.242;9.098;2024-03-23T11:15:25;6.30;;;2.60;;
16892;SDS011;8563;52.242;9.098;2024-03-23T11:18:04;9.53;;;3.10;;
16892;SDS011;8563;52.242;9.098;2024-03-23T11:20:38;7.43;;;2.90;;
16892;SDS011;8563;52.242;9.098;2024-03-23T11:23:09;8.77;;;3.07;;
16892;SDS011;8563;52.242;9.098;2024-03-23T11:25:58;8.17;;;2.87;;
16892;SDS011;8563;52.242;9.098;2024-03-23T11:28:30;8.17;;;2.70;;
16892;SDS011;8563;52.242;9.098;2024-03-23T11:31:08;7.33;;;2.67;;
16892;SDS011;8563;52.242;9.098;2024-03-23T11:33:42;6.77;;;2.90;;
16892;SDS011;8563;52.242;9.098;2024-03-23T11:36:18;3.77;;;1.20;;
16892;SDS011;8563;52.242;9.098;2024-03-23T11:38:50;3.23;;;0.90;;
16892;SDS011;8563;52.242;9.098;2024-03-23T11:41:22;3.57;;;1.20;;
16892;SDS011;8563;52.242;9.098;2024-03-23T11:43:53;2.23;;;0.97;;
16892;SDS011;8563;52.242;9.098;2024-03-23T11:46:25;3.17;;;1.30;;
16892;SDS011;8563;52.242;9.098;2024-03-23T11:48:59;4.23;;;1.40;;
16892;SDS011;8563;52.242;9.098;2024-03-23T11:51:31;4.63;;;1.30;;
16892;SDS011;8563;52.242;9.098;2024-03-23T11:54:07;4.30;;;1.50;;
16892;SDS011;8563;52.242;9.098;2024-03-23T11:56:39;5.03;;;1.90;;
16892;SDS011;8563;52.242;9.098;2024-03-23T11:59:11;6.53;;;1.90;;
16892;SDS011;8563;52.242;9.098;2024-03-23T12:01:43;4.37;;;1.50;;
16892;SDS011;8563;52.242;9.098;2024-03-23T12:04:25;12.47;;;4.80;;
16892;SDS011;8563;52.242;9.098;2024-03-23T12:07:14;2.83;;;1.50;;
16892;SDS011;8563;52.242;9.098;2024-03-23T12:10:02;2.00;;;1.20;;
16892;SDS011;8563;52.242;9.098;2024-03-23T12:12:34;6.77;;;5.03;;
16892;SDS011;8563;52.242;9.098;2024-03-23T12:15:06;5.20;;;1.53;;
16892;SDS011;8563;52.242;9.098;2024-03-23T12:17:39;2.50;;;1.90;;
16892;SDS011;8563;52.242;9.098;2024-03-23T12:20:12;5.47;;;4.23;;
16892;SDS011;8563;52.242;9.098;2024-03-23T12:22:45;2.97;;;1.40;;
16892;SDS011;8563;52.242;9.098;2024-03-23T12:25:17;1.73;;;0.97;;
16892;SDS011;8563;52.242;9.098;2024-03-23T12:27:49;2.90;;;1.13;;
16892;SDS011;8563;52.242;9.098;2024-03-23T12:30:20;1.87;;;0.97;;
16892;SDS011;8563;52.242;9.098;2024-03-23T12:32:53;1.60;;;1.00;;
16892;SDS011;8563;52.242;9.098;2024-03-23T12:35:26;4.50;;;1.37;;
16892;SDS011;8563;52.242;9.098;2024-03-23T12:37:58;2.40;;;1.30;;
16892;SDS011;8563;52.242;9.098;2024-03-23T12:40:30;2.47;;;1.20;;
16892;SDS011;8563;52.242;9.098;2024-03-23T12:43:02;2.57;;;1.10;;
16892;SDS011;8563;52.242;9.098;2024-03-23T12:45:33;3.57;;;1.30;;
16892;SDS011;8563;52.242;9.098;2024-03-23T12:48:06;3.70;;;1.00;;
16892;SDS011;8563;52.242;9.098;2024-03-23T12:50:39;2.00;;;0.93;;
16892;SDS011;8563;52.242;9.098;2024-03-23T12:53:12;2.10;;;0.93;;
16892;SDS011;8563;52.242;9.098;2024-03-23T12:55:43;2.13;;;1.30;;
16892;SDS011;8563;52.242;9.098;2024-03-23T12:58:15;2.97;;;1.10;;
16892;SDS011;8563;52.242;9.098;2024-03-23T13:00:47;3.07;;;1.27;;
16892;SDS011;8563;52.242;9.098;2024-03-23T13:03:19;3.10;;;1.40;;
16892;SDS011;8563;52.242;9.098;2024-03-23T13:05:52;6.57;;;4.27;;
16892;SDS011;8563;52.242;9.098;2024-03-23T13:08:25;10.90;;;8.03;;
16892;SDS011;8563;52.242;9.098;2024-03-23T13:10:56;6.00;;;3.70;;
16892;SDS011;8563;52.242;9.098;2024-03-23T13:13:29;5.43;;;2.70;;
16892;SDS011;8563;52.242;9.098;2024-03-23T13:16:02;5.13;;;1.80;;
16892;SDS011;8563;52.242;9.098;2024-03-23T13:18:35;5.87;;;1.83;;
16892;SDS011;8563;52.242;9.098;2024-03-23T13:21:08;2.80;;;1.40;;
16892;SDS011;8563;52.242;9.098;2024-03-23T13:23:41;6.37;;;1.70;;
16892;SDS011;8563;52.242;9.098;2024-03-23T13:26:14;3.70;;;1.20;;
16892;SDS011;8563;52.242;9.098;2024-03-23T13:28:46;4.83;;;1.50;;
16892;SDS011;8563;52.242;9.098;2024-03-23T13:31:17;6.33;;;1.70;;
16892;SDS011;8563;52.242;9.098;2024-03-23T13:33:50;6.43;;;1.67;;
16892;SDS011;8563;52.242;9.098;2024-03-23T13:36:22;3.43;;;1.40;;
16892;SDS011;8563;52.242;9.098;2024-03-23T13:38:55;5.53;;;1.57;;
16892;SDS011;8563;52.242;9.098;2024-03-23T13:41:26;4.67;;;1.30;;
16892;SDS011;8563;52.242;9.098;2024-03-23T13:43:58;2.57;;;1.10;;
16892;SDS011;8563;52.242;9.098;2024-03-23T13:46:30;3.40;;;0.97;;
16892;SDS011;8563;52.242;9.098;2024-03-23T13:49:02;2.23;;;0.90;;
16892;SDS011;8563;52.242;9.098;2024-03-23T13:51:35;1.40;;;0.60;;
16892;SDS011;8563;52.242;9.098;2024-03-23T13:54:07;1.10;;;0.50;;
16892;SDS011;8563;52.242;9.098;2024-03-23T13:56:39;2.30;;;0.63;;
16892;SDS011;8563;52.242;9.098;2024-03-23T13:59:11;0.73;;;0.50;;
16892;SDS011;8563;52.242;9.098;2024-03-23T14:01:42;2.83;;;0.63;;
16892;SDS011;8563;52.242;9.098;2024-03-23T14:04:15;0.70;;;0.30;;
16892;SDS011;8563;52.242;9.098;2024-03-23T14:06:48;0.80;;;0.50;;
16892;SDS011;8563;52.242;9.098;2024-03-23T14:09:21;0.50;;;0.40;;
16892;SDS011;8563;52.242;9.098;2024-03-23T14:11:55;1.83;;;0.50;;
16892;SDS011;8563;52.242;9.098;2024-03-23T14:14:28;0.97;;;0.43;;
16892;SDS011;8563;52.242;9.098;2024-03-23T14:16:59;1.47;;;0.50;;
16892;SDS011;8563;52.242;9.098;2024-03-23T14:19:31;0.70;;;0.47;;
16892;SDS011;8563;52.242;9.098;2024-03-23T14:22:05;2.53;;;1.40;;
16892;SDS011;8563;52.242;9.098;2024-03-23T14:24:37;1.50;;;0.80;;
16892;SDS011;8563;52.242;9.098;2024-03-23T14:27:09;1.97;;;1.07;;
16892;SDS011;8563;52.242;9.098;2024-03-23T14:29:41;2.00;;;1.10;;
16892;SDS011;8563;52.242;9.098;2024-03-23T14:32:16;4.07;;;1.47;;
16892;SDS011;8563;52.242;9.098;2024-03-23T14:34:48;2.20;;;1.10;;
16892;SDS011;8563;52.242;9.098;2024-03-23T14:37:21;2.33;;;1.00;;
16892;SDS011;8563;52.242;9.098;2024-03-23T14:39:54;4.17;;;1.23;;
16892;SDS011;8563;52.242;9.098;2024-03-23T14:42:26;3.57;;;1.10;;
16892;SDS011;8563;52.242;9.098;2024-03-23T14:44:58;3.57;;;1.30;;
16892;SDS011;8563;52.242;9.098;2024-03-23T14:47:30;5.00;;;1.47;;
16892;SDS011;8563;52.242;9.098;2024-03-23T14:50:02;3.20;;;1.10;;
16892;SDS011;8563;52.242;9.098;2024-03-23T14:52:36;2.57;;;1.23;;
16892;SDS011;8563;52.242;9.098;2024-03-23T14:55:08;3.67;;;1.60;;
16892;SDS011;8563;52.242;9.098;2024-03-23T14:57:39;3.57;;;1.37;;
16892;SDS011;8563;52.242;9.098;2024-03-23T15:00:12;3.73;;;1.40;;
16892;SDS011;8563;52.242;9.098;2024-03-23T15:02:43;4.00;;;1.30;;
16892;SDS011;8563;52.242;9.098;2024-03-23T15:05:17;2.23;;;1.20;;
16892;SDS011;8563;52.242;9.098;2024-03-23T15:07:49;4.63;;;1.80;;
16892;SDS011;8563;52.242;9.098;2024-03-23T15:10:22;4.47;;;1.30;;
16892;SDS011;8563;52.242;9.098;2024-03-23T15:12:53;4.83;;;1.20;;
16892;SDS011;8563;52.242;9.098;2024-03-23T15:15:25;4.60;;;1.10;;
16892;SDS011;8563;52.242;9.098;2024-03-23T15:17:57;3.63;;;0.90;;
16892;SDS011;8563;52.242;9.098;2024-03-23T15:20:29;2.70;;;1.07;;
16892;SDS011;8563;52.242;9.098;2024-03-23T15:23:01;3.03;;;1.00;;
16892;SDS011;8563;52.242;9.098;2024-03-23T15:25:34;2.60;;;0.70;;
16892;SDS011;8563;52.242;9.098;2024-03-23T15:28:05;1.67;;;0.80;;
16892;SDS011;8563;52.242;9.098;2024-03-23T15:30:37;3.10;;;0.80;;
16892;SDS011;8563;52.242;9.098;2024-03-23T15:33:09;2.87;;;0.93;;
16892;SDS011;8563;52.242;9.098;2024-03-23T15:35:42;2.67;;;0.80;;
16892;SDS011;8563;52.242;9.098;2024-03-23T15:38:15;2.77;;;0.80;;
16892;SDS011;8563;52.242;9.098;2024-03-23T15:40:50;2.57;;;0.97;;
16892;SDS011;8563;52.242;9.098;2024-03-23T15:43:22;2.60;;;0.90;;
16892;SDS011;8563;52.242;9.098;2024-03-23T15:45:54;3.30;;;1.20;;
16892;SDS011;8563;52.242;9.098;2024-03-23T15:48:26;2.90;;;1.40;;
16892;SDS011;8563;52.242;9.098;2024-03-23T15:50:59;6.13;;;2.83;;
16892;SDS011;8563;52.242;9.098;2024-03-23T15:53:32;8.50;;;6.33;;
16892;SDS011;8563;52.242;9.098;2024-03-23T15:56:05;3.67;;;2.10;;
16892;SDS011;8563;52.242;9.098;2024-03-23T15:58:36;3.33;;;2.03;;
16892;SDS011;8563;52.242;9.098;2024-03-23T16:01:09;2.97;;;1.00;;
16892;SDS011;8563;52.242;9.098;2024-03-23T16:03:41;2.53;;;1.20;;
16892;SDS011;8563;52.242;9.098;2024-03-23T16:06:13;2.87;;;0.90;;
16892;SDS011;8563;52.242;9.098;2024-03-23T16:08:46;5.17;;;1.27;;
16892;SDS011;8563;52.242;9.098;2024-03-23T16:11:18;2.80;;;0.90;;
16892;SDS011;8563;52.242;9.098;2024-03-23T16:13:50;3.60;;;1.50;;
16892;SDS011;8563;52.242;9.098;2024-03-23T16:16:22;2.50;;;1.30;;
16892;SDS011;8563;52.242;9.098;2024-03-23T16:18:54;4.60;;;1.53;;
16892;SDS011;8563;52.242;9.098;2024-03-23T16:21:26;2.43;;;1.40;;